sensor_id;sensor_type;location;lat;lon;timestamp;P1;durP1;ratioP1;P2;durP2;ratioP2
48861;SDS011;34681;49.188;-0.374;2022-09-12T00:00:21;2.20;;;2.10;;
48861;SDS011;34681;49.188;-0.374;2022-09-12T00:02:50;2.70;;;2.43;;
48861;SDS011;34681;49.188;-0.374;2022-09-12T00:05:16;2.80;;;2.60;;
48861;SDS011;34681;49.188;-0.374;2022-09-12T00:07:42;2.20;;;2.10;;
48861;SDS011;34681;49.188;-0.374;2022-09-12T00:10:07;2.17;;;2.07;;
48861;SDS011;34681;49.188;-0.374;2022-09-12T00:12:32;2.53;;;2.33;;
48861;SDS011;34681;49.188;-0.374;2022-09-12T00:14:58;2.80;;;2.60;;
48861;SDS011;34681;49.188;-0.374;2022-09-12T00:17:23;2.63;;;2.53;;
48861;SDS011;34681;49.188;-0.374;2022-09-12T00:19:49;2.20;;;2.10;;
48861;SDS011;34681;49.188;-0.374;2022-09-12T00:22:14;2.33;;;2.13;;
48861;SDS011;34681;49.188;-0.374;2022-09-12T00:24:39;2.80;;;2.60;;
48861;SDS011;34681;49.188;-0.374;2022-09-12T00:27:05;2.77;;;2.53;;
48861;SDS011;34681;49.188;-0.374;2022-09-12T00:29:30;2.40;;;2.20;;
48861;SDS011;34681;49.188;-0.374;2022-09-12T00:31:55;2.20;;;2.10;;
48861;SDS011;34681;49.188;-0.374;2022-09-12T00:34:21;2.93;;;2.30;;
48861;SDS011;34681;49.188;-0.374;2022-09-12T00:36:46;2.60;;;2.40;;
48861;SDS011;34681;49.188;-0.374;2022-09-12T00:39:13;2.10;;;2.00;;
48861;SDS011;34681;49.188;-0.374;2022-09-12T00:41:40;2.40;;;2.30;;
48861;SDS011;34681;49.188;-0.374;2022-09-12T00:46:36;6.03;;;2.20;;
48861;SDS011;34681;49.188;-0.374;2022-09-12T00:51:36;3.37;;;2.60;;
48861;SDS011;34681;49.188;-0.374;2022-09-12T00:54:05;2.43;;;2.33;;
48861;SDS011;34681;49.188;-0.374;2022-09-12T00:56:35;2.53;;;2.40;;
48861;SDS011;34681;49.188;-0.374;2022-09-12T00:59:08;2.93;;;2.73;;
48861;SDS011;34681;49.188;-0.374;2022-09-12T01:01:41;2.53;;;2.33;;
48861;SDS011;34681;49.188;-0.374;2022-09-12T01:04:10;2.50;;;2.30;;
48861;SDS011;34681;49.188;-0.374;2022-09-12T01:06:40;2.50;;;2.40;;
48861;SDS011;34681;49.188;-0.374;2022-09-12T01:09:08;2.20;;;2.10;;
48861;SDS011;34681;49.188;-0.374;2022-09-12T01:11:37;2.20;;;2.10;;
48861;SDS011;34681;49.188;-0.374;2022-09-12T01:14:04;2.43;;;2.23;;
48861;SDS011;34681;49.188;-0.374;2022-09-12T01:16:30;2.70;;;2.50;;
48861;SDS011;34681;49.188;-0.374;2022-09-12T01:19:10;2.10;;;2.00;;
48861;SDS011;34681;49.188;-0.374;2022-09-12T01:41:14;2.53;;;2.40;;
48861;SDS011;34681;49.188;-0.374;2022-09-12T01:46:16;3.83;;;2.60;;
48861;SDS011;34681;49.188;-0.374;2022-09-12T01:51:37;3.30;;;2.57;;
48861;SDS011;34681;49.188;-0.374;2022-09-12T01:54:07;2.80;;;2.70;;
48861;SDS011;34681;49.188;-0.374;2022-09-12T01:56:37;2.40;;;2.30;;
48861;SDS011;34681;49.188;-0.374;2022-09-12T02:01:31;2.90;;;2.70;;
48861;SDS011;34681;49.188;-0.374;2022-09-12T02:04:03;2.67;;;2.47;;
48861;SDS011;34681;49.188;-0.374;2022-09-12T02:06:37;3.00;;;2.80;;
48861;SDS011;34681;49.188;-0.374;2022-09-12T02:09:12;2.40;;;2.30;;
48861;SDS011;34681;49.188;-0.374;2022-09-12T02:11:45;2.67;;;2.47;;
48861;SDS011;34681;49.188;-0.374;2022-09-12T02:14:20;2.40;;;2.20;;
48861;SDS011;34681;49.188;-0.374;2022-09-12T02:16:54;3.50;;;2.33;;
48861;SDS011;34681;49.188;-0.374;2022-09-12T02:19:25;3.27;;;3.07;;
48861;SDS011;34681;49.188;-0.374;2022-09-12T02:21:57;2.33;;;2.23;;
48861;SDS011;34681;49.188;-0.374;2022-09-12T02:24:27;2.93;;;2.73;;
48861;SDS011;34681;49.188;-0.374;2022-09-12T02:26:58;2.40;;;2.30;;
48861;SDS011;34681;49.188;-0.374;2022-09-12T02:29:45;2.83;;;2.10;;
48861;SDS011;34681;49.188;-0.374;2022-09-12T02:32:13;2.73;;;2.53;;
48861;SDS011;34681;49.188;-0.374;2022-09-12T02:34:52;2.70;;;2.40;;
48861;SDS011;34681;49.188;-0.374;2022-09-12T02:40:26;2.57;;;2.37;;
48861;SDS011;34681;49.188;-0.374;2022-09-12T02:42:53;2.20;;;2.10;;
48861;SDS011;34681;49.188;-0.374;2022-09-12T02:45:19;2.27;;;2.17;;
48861;SDS011;34681;49.188;-0.374;2022-09-12T02:47:47;2.80;;;2.60;;
48861;SDS011;34681;49.188;-0.374;2022-09-12T02:50:14;2.33;;;2.20;;
48861;SDS011;34681;49.188;-0.374;2022-09-12T02:52:39;2.67;;;2.47;;
48861;SDS011;34681;49.188;-0.374;2022-09-12T02:55:06;2.67;;;2.47;;
48861;SDS011;34681;49.188;-0.374;2022-09-12T02:57:32;3.20;;;2.60;;
48861;SDS011;34681;49.188;-0.374;2022-09-12T02:59:58;2.67;;;2.57;;
48861;SDS011;34681;49.188;-0.374;2022-09-12T03:02:34;2.60;;;2.50;;
48861;SDS011;34681;49.188;-0.374;2022-09-12T03:11:21;2.63;;;2.53;;
48861;SDS011;34681;49.188;-0.374;2022-09-12T03:27:39;2.67;;;2.47;;
48861;SDS011;34681;49.188;-0.374;2022-09-12T03:30:09;2.70;;;2.60;;
48861;SDS011;34681;49.188;-0.374;2022-09-12T03:32:47;7.17;;;2.63;;
48861;SDS011;34681;49.188;-0.374;2022-09-12T03:35:14;3.20;;;3.00;;
48861;SDS011;34681;49.188;-0.374;2022-09-12T03:37:42;3.97;;;3.67;;
48861;SDS011;34681;49.188;-0.374;2022-09-12T03:40:08;3.77;;;3.50;;
48861;SDS011;34681;49.188;-0.374;2022-09-12T03:42:34;3.60;;;3.30;;
48861;SDS011;34681;49.188;-0.374;2022-09-12T03:44:59;3.50;;;3.30;;
48861;SDS011;34681;49.188;-0.374;2022-09-12T03:47:25;3.47;;;3.27;;
48861;SDS011;34681;49.188;-0.374;2022-09-12T03:49:50;3.73;;;3.20;;
48861;SDS011;34681;49.188;-0.374;2022-09-12T03:52:17;4.40;;;4.10;;
48861;SDS011;34681;49.188;-0.374;2022-09-12T03:54:42;4.63;;;3.70;;
48861;SDS011;34681;49.188;-0.374;2022-09-12T03:57:08;3.00;;;2.80;;
48861;SDS011;34681;49.188;-0.374;2022-09-12T03:59:33;3.50;;;3.30;;
48861;SDS011;34681;49.188;-0.374;2022-09-12T04:01:58;3.80;;;3.37;;
48861;SDS011;34681;49.188;-0.374;2022-09-12T04:04:24;3.07;;;2.87;;
48861;SDS011;34681;49.188;-0.374;2022-09-12T04:06:49;3.00;;;2.80;;
48861;SDS011;34681;49.188;-0.374;2022-09-12T04:09:15;3.27;;;2.90;;
48861;SDS011;34681;49.188;-0.374;2022-09-12T04:11:40;4.00;;;2.80;;
48861;SDS011;34681;49.188;-0.374;2022-09-12T04:14:05;3.10;;;2.90;;
48861;SDS011;34681;49.188;-0.374;2022-09-12T04:16:31;3.43;;;3.17;;
48861;SDS011;34681;49.188;-0.374;2022-09-12T04:18:56;3.43;;;3.17;;
48861;SDS011;34681;49.188;-0.374;2022-09-12T04:21:22;3.80;;;3.50;;
48861;SDS011;34681;49.188;-0.374;2022-09-12T04:23:48;3.53;;;3.23;;
48861;SDS011;34681;49.188;-0.374;2022-09-12T04:26:13;3.83;;;3.50;;
48861;SDS011;34681;49.188;-0.374;2022-09-12T04:28:41;3.30;;;3.10;;
48861;SDS011;34681;49.188;-0.374;2022-09-12T04:31:08;4.70;;;4.30;;
48861;SDS011;34681;49.188;-0.374;2022-09-12T04:33:36;4.10;;;3.90;;
48861;SDS011;34681;49.188;-0.374;2022-09-12T04:36:02;4.20;;;3.13;;
48861;SDS011;34681;49.188;-0.374;2022-09-12T04:38:29;3.67;;;3.37;;
48861;SDS011;34681;49.188;-0.374;2022-09-12T04:40:55;3.10;;;2.90;;
48861;SDS011;34681;49.188;-0.374;2022-09-12T04:43:21;3.80;;;3.40;;
48861;SDS011;34681;49.188;-0.374;2022-09-12T04:45:46;3.23;;;3.03;;
48861;SDS011;34681;49.188;-0.374;2022-09-12T04:48:11;3.63;;;3.43;;
48861;SDS011;34681;49.188;-0.374;2022-09-12T04:50:37;3.37;;;3.17;;
48861;SDS011;34681;49.188;-0.374;2022-09-12T04:53:02;3.40;;;3.20;;
48861;SDS011;34681;49.188;-0.374;2022-09-12T04:55:28;3.03;;;2.83;;
48861;SDS011;34681;49.188;-0.374;2022-09-12T04:57:53;2.70;;;2.50;;
48861;SDS011;34681;49.188;-0.374;2022-09-12T05:00:18;2.93;;;2.67;;
48861;SDS011;34681;49.188;-0.374;2022-09-12T05:02:44;2.90;;;2.70;;
48861;SDS011;34681;49.188;-0.374;2022-09-12T05:05:10;2.87;;;2.60;;
48861;SDS011;34681;49.188;-0.374;2022-09-12T05:07:35;3.17;;;2.97;;
48861;SDS011;34681;49.188;-0.374;2022-09-12T05:10:01;3.40;;;3.10;;
48861;SDS011;34681;49.188;-0.374;2022-09-12T05:12:28;5.80;;;4.20;;
48861;SDS011;34681;49.188;-0.374;2022-09-12T05:14:55;3.37;;;3.17;;
48861;SDS011;34681;49.188;-0.374;2022-09-12T05:17:20;4.03;;;3.63;;
48861;SDS011;34681;49.188;-0.374;2022-09-12T05:19:46;4.47;;;3.50;;
48861;SDS011;34681;49.188;-0.374;2022-09-12T05:22:11;3.43;;;3.23;;
48861;SDS011;34681;49.188;-0.374;2022-09-12T05:24:37;4.20;;;3.80;;
48861;SDS011;34681;49.188;-0.374;2022-09-12T05:27:03;6.50;;;4.70;;
48861;SDS011;34681;49.188;-0.374;2022-09-12T05:29:29;4.53;;;4.20;;
48861;SDS011;34681;49.188;-0.374;2022-09-12T05:31:54;4.83;;;4.40;;
48861;SDS011;34681;49.188;-0.374;2022-09-12T05:34:20;6.03;;;4.90;;
48861;SDS011;34681;49.188;-0.374;2022-09-12T05:36:46;5.63;;;4.23;;
48861;SDS011;34681;49.188;-0.374;2022-09-12T05:39:11;4.47;;;4.17;;
48861;SDS011;34681;49.188;-0.374;2022-09-12T05:41:37;3.23;;;3.03;;
48861;SDS011;34681;49.188;-0.374;2022-09-12T05:44:04;4.50;;;4.17;;
48861;SDS011;34681;49.188;-0.374;2022-09-12T05:46:34;5.07;;;4.67;;
48861;SDS011;34681;49.188;-0.374;2022-09-12T05:49:04;4.17;;;3.87;;
48861;SDS011;34681;49.188;-0.374;2022-09-12T05:51:31;6.20;;;4.80;;
48861;SDS011;34681;49.188;-0.374;2022-09-12T05:53:59;4.57;;;4.23;;
48861;SDS011;34681;49.188;-0.374;2022-09-12T05:56:28;7.50;;;4.57;;
48861;SDS011;34681;49.188;-0.374;2022-09-12T05:58:58;7.17;;;4.20;;
48861;SDS011;34681;49.188;-0.374;2022-09-12T06:01:26;3.80;;;3.50;;
48861;SDS011;34681;49.188;-0.374;2022-09-12T06:03:53;3.80;;;3.60;;
48861;SDS011;34681;49.188;-0.374;2022-09-12T06:06:21;3.30;;;3.00;;
48861;SDS011;34681;49.188;-0.374;2022-09-12T06:08:48;4.23;;;3.37;;
48861;SDS011;34681;49.188;-0.374;2022-09-12T06:11:17;3.47;;;3.27;;
48861;SDS011;34681;49.188;-0.374;2022-09-12T06:13:44;3.47;;;3.27;;
48861;SDS011;34681;49.188;-0.374;2022-09-12T06:16:24;3.57;;;3.23;;
48861;SDS011;34681;49.188;-0.374;2022-09-12T06:18:51;4.47;;;3.40;;
48861;SDS011;34681;49.188;-0.374;2022-09-12T06:21:18;4.10;;;3.47;;
48861;SDS011;34681;49.188;-0.374;2022-09-12T06:23:45;4.07;;;3.13;;
48861;SDS011;34681;49.188;-0.374;2022-09-12T06:26:11;6.10;;;3.40;;
48861;SDS011;34681;49.188;-0.374;2022-09-12T06:28:38;3.10;;;2.80;;
48861;SDS011;34681;49.188;-0.374;2022-09-12T06:31:07;3.33;;;3.10;;
48861;SDS011;34681;49.188;-0.374;2022-09-12T06:33:39;2.63;;;2.53;;
48861;SDS011;34681;49.188;-0.374;2022-09-12T06:36:09;5.63;;;3.50;;
48861;SDS011;34681;49.188;-0.374;2022-09-12T06:38:36;3.67;;;3.27;;
48861;SDS011;34681;49.188;-0.374;2022-09-12T06:41:06;4.80;;;3.30;;
48861;SDS011;34681;49.188;-0.374;2022-09-12T06:43:33;3.93;;;3.60;;
48861;SDS011;34681;49.188;-0.374;2022-09-12T06:45:59;4.30;;;3.90;;
48861;SDS011;34681;49.188;-0.374;2022-09-12T06:48:25;4.00;;;3.80;;
48861;SDS011;34681;49.188;-0.374;2022-09-12T06:51:04;4.27;;;3.90;;
48861;SDS011;34681;49.188;-0.374;2022-09-12T06:53:34;4.63;;;4.00;;
48861;SDS011;34681;49.188;-0.374;2022-09-12T06:56:10;3.80;;;3.50;;
48861;SDS011;34681;49.188;-0.374;2022-09-12T06:58:38;3.83;;;3.27;;
48861;SDS011;34681;49.188;-0.374;2022-09-12T07:01:08;5.73;;;3.67;;
48861;SDS011;34681;49.188;-0.374;2022-09-12T07:03:35;3.97;;;3.13;;
48861;SDS011;34681;49.188;-0.374;2022-09-12T07:06:12;6.00;;;3.27;;
48861;SDS011;34681;49.188;-0.374;2022-09-12T07:08:38;3.90;;;3.47;;
48861;SDS011;34681;49.188;-0.374;2022-09-12T07:11:12;3.30;;;3.00;;
48861;SDS011;34681;49.188;-0.374;2022-09-12T07:13:45;3.23;;;3.03;;
48861;SDS011;34681;49.188;-0.374;2022-09-12T07:16:12;4.37;;;3.50;;
48861;SDS011;34681;49.188;-0.374;2022-09-12T07:18:38;4.87;;;2.77;;
48861;SDS011;34681;49.188;-0.374;2022-09-12T07:21:05;3.77;;;2.27;;
48861;SDS011;34681;49.188;-0.374;2022-09-12T07:23:32;3.03;;;2.83;;
48861;SDS011;34681;49.188;-0.374;2022-09-12T07:25:58;3.27;;;3.07;;
48861;SDS011;34681;49.188;-0.374;2022-09-12T07:28:25;2.37;;;2.17;;
48861;SDS011;34681;49.188;-0.374;2022-09-12T07:30:52;2.40;;;2.20;;
48861;SDS011;34681;49.188;-0.374;2022-09-12T07:33:21;2.20;;;1.93;;
48861;SDS011;34681;49.188;-0.374;2022-09-12T07:35:49;3.97;;;3.03;;
48861;SDS011;34681;49.188;-0.374;2022-09-12T07:38:15;2.10;;;1.83;;
48861;SDS011;34681;49.188;-0.374;2022-09-12T07:40:41;2.33;;;2.10;;
48861;SDS011;34681;49.188;-0.374;2022-09-12T07:43:07;4.53;;;2.13;;
48861;SDS011;34681;49.188;-0.374;2022-09-12T07:45:33;5.33;;;2.50;;
48861;SDS011;34681;49.188;-0.374;2022-09-12T07:47:58;2.80;;;1.60;;
48861;SDS011;34681;49.188;-0.374;2022-09-12T07:50:24;1.73;;;1.63;;
48861;SDS011;34681;49.188;-0.374;2022-09-12T07:52:49;2.20;;;2.00;;
48861;SDS011;34681;49.188;-0.374;2022-09-12T07:55:14;3.77;;;2.50;;
48861;SDS011;34681;49.188;-0.374;2022-09-12T07:57:40;3.57;;;2.50;;
48861;SDS011;34681;49.188;-0.374;2022-09-12T08:00:06;4.80;;;2.10;;
48861;SDS011;34681;49.188;-0.374;2022-09-12T08:02:32;1.73;;;1.63;;
48861;SDS011;34681;49.188;-0.374;2022-09-12T08:04:58;2.50;;;2.30;;
48861;SDS011;34681;49.188;-0.374;2022-09-12T08:07:24;3.00;;;2.03;;
48861;SDS011;34681;49.188;-0.374;2022-09-12T08:09:49;5.80;;;2.30;;
48861;SDS011;34681;49.188;-0.374;2022-09-12T08:12:15;2.90;;;2.40;;
48861;SDS011;34681;49.188;-0.374;2022-09-12T08:14:41;2.90;;;2.70;;
48861;SDS011;34681;49.188;-0.374;2022-09-12T08:17:07;3.13;;;2.10;;
48861;SDS011;34681;49.188;-0.374;2022-09-12T08:19:32;2.60;;;2.30;;
48861;SDS011;34681;49.188;-0.374;2022-09-12T08:21:57;5.00;;;1.93;;
48861;SDS011;34681;49.188;-0.374;2022-09-12T08:24:23;3.20;;;2.20;;
48861;SDS011;34681;49.188;-0.374;2022-09-12T08:26:49;4.90;;;2.50;;
48861;SDS011;34681;49.188;-0.374;2022-09-12T08:29:14;2.90;;;2.67;;
48861;SDS011;34681;49.188;-0.374;2022-09-12T08:31:39;3.47;;;2.50;;
48861;SDS011;34681;49.188;-0.374;2022-09-12T08:34:06;3.77;;;2.40;;
48861;SDS011;34681;49.188;-0.374;2022-09-12T08:36:32;2.17;;;1.97;;
48861;SDS011;34681;49.188;-0.374;2022-09-12T08:38:59;2.57;;;2.47;;
48861;SDS011;34681;49.188;-0.374;2022-09-12T08:41:30;1.93;;;1.80;;
48861;SDS011;34681;49.188;-0.374;2022-09-12T08:49:32;3.20;;;2.30;;
48861;SDS011;34681;49.188;-0.374;2022-09-12T08:51:58;3.90;;;2.20;;
48861;SDS011;34681;49.188;-0.374;2022-09-12T08:54:29;2.40;;;2.20;;
48861;SDS011;34681;49.188;-0.374;2022-09-12T08:57:07;2.07;;;1.90;;
48861;SDS011;34681;49.188;-0.374;2022-09-12T08:59:36;1.90;;;1.80;;
48861;SDS011;34681;49.188;-0.374;2022-09-12T09:02:19;2.30;;;2.17;;
48861;SDS011;34681;49.188;-0.374;2022-09-12T09:04:59;2.43;;;2.20;;
48861;SDS011;34681;49.188;-0.374;2022-09-12T09:10:17;3.47;;;2.17;;
48861;SDS011;34681;49.188;-0.374;2022-09-12T09:18:54;2.70;;;2.50;;
48861;SDS011;34681;49.188;-0.374;2022-09-12T09:21:47;4.63;;;1.87;;
48861;SDS011;34681;49.188;-0.374;2022-09-12T09:24:17;4.13;;;1.80;;
48861;SDS011;34681;49.188;-0.374;2022-09-12T09:26:48;1.83;;;1.73;;
48861;SDS011;34681;49.188;-0.374;2022-09-12T09:29:21;2.60;;;2.00;;
48861;SDS011;34681;49.188;-0.374;2022-09-12T09:32:02;1.90;;;1.80;;
48861;SDS011;34681;49.188;-0.374;2022-09-12T09:34:34;3.23;;;1.80;;
48861;SDS011;34681;49.188;-0.374;2022-09-12T09:37:17;2.00;;;1.67;;
48861;SDS011;34681;49.188;-0.374;2022-09-12T09:40:47;2.30;;;2.10;;
48861;SDS011;34681;49.188;-0.374;2022-09-12T09:42:56;2.60;;;1.60;;
48861;SDS011;34681;49.188;-0.374;2022-09-12T09:45:23;2.90;;;1.90;;
48861;SDS011;34681;49.188;-0.374;2022-09-12T09:50:42;2.60;;;1.70;;
48861;SDS011;34681;49.188;-0.374;2022-09-12T09:53:11;4.70;;;1.57;;
48861;SDS011;34681;49.188;-0.374;2022-09-12T09:55:52;2.60;;;1.60;;
48861;SDS011;34681;49.188;-0.374;2022-09-12T09:58:32;2.07;;;1.40;;
48861;SDS011;34681;49.188;-0.374;2022-09-12T10:01:03;1.93;;;1.80;;
48861;SDS011;34681;49.188;-0.374;2022-09-12T10:05:57;3.33;;;2.00;;
48861;SDS011;34681;49.188;-0.374;2022-09-12T10:08:25;2.60;;;2.40;;
48861;SDS011;34681;49.188;-0.374;2022-09-12T10:10:59;9.77;;;2.30;;
48861;SDS011;34681;49.188;-0.374;2022-09-12T10:16:31;1.80;;;1.70;;
48861;SDS011;34681;49.188;-0.374;2022-09-12T10:18:59;2.20;;;2.00;;
48861;SDS011;34681;49.188;-0.374;2022-09-12T10:24:01;2.20;;;2.00;;
48861;SDS011;34681;49.188;-0.374;2022-09-12T10:26:31;7.37;;;2.00;;
48861;SDS011;34681;49.188;-0.374;2022-09-12T10:29:02;3.43;;;2.33;;
48861;SDS011;34681;49.188;-0.374;2022-09-12T10:31:45;2.13;;;1.67;;
48861;SDS011;34681;49.188;-0.374;2022-09-12T10:34:33;2.13;;;2.00;;
48861;SDS011;34681;49.188;-0.374;2022-09-12T10:37:05;1.73;;;1.63;;
48861;SDS011;34681;49.188;-0.374;2022-09-12T10:39:33;1.70;;;1.60;;
48861;SDS011;34681;49.188;-0.374;2022-09-12T10:42:02;2.00;;;1.90;;
48861;SDS011;34681;49.188;-0.374;2022-09-12T10:44:29;2.50;;;2.20;;
48861;SDS011;34681;49.188;-0.374;2022-09-12T10:46:57;2.87;;;1.93;;
48861;SDS011;34681;49.188;-0.374;2022-09-12T10:49:27;2.73;;;2.00;;
48861;SDS011;34681;49.188;-0.374;2022-09-12T10:52:15;1.93;;;1.57;;
48861;SDS011;34681;49.188;-0.374;2022-09-12T10:54:47;2.13;;;1.93;;
48861;SDS011;34681;49.188;-0.374;2022-09-12T10:57:40;2.30;;;2.10;;
48861;SDS011;34681;49.188;-0.374;2022-09-12T11:00:14;3.90;;;1.87;;
48861;SDS011;34681;49.188;-0.374;2022-09-12T11:13:57;3.53;;;2.10;;
48861;SDS011;34681;49.188;-0.374;2022-09-12T11:16:28;2.13;;;1.80;;
48861;SDS011;34681;49.188;-0.374;2022-09-12T11:19:16;1.70;;;1.60;;
48861;SDS011;34681;49.188;-0.374;2022-09-12T11:24:45;1.70;;;1.60;;
48861;SDS011;34681;49.188;-0.374;2022-09-12T11:30:06;2.33;;;1.90;;
48861;SDS011;34681;49.188;-0.374;2022-09-12T11:35:24;1.70;;;1.60;;
48861;SDS011;34681;49.188;-0.374;2022-09-12T11:43:40;8.40;;;2.10;;
48861;SDS011;34681;49.188;-0.374;2022-09-12T11:51:56;1.93;;;1.63;;
48861;SDS011;34681;49.188;-0.374;2022-09-12T11:54:34;1.70;;;1.60;;
48861;SDS011;34681;49.188;-0.374;2022-09-12T12:02:28;4.40;;;1.53;;
48861;SDS011;34681;49.188;-0.374;2022-09-12T12:07:30;1.60;;;1.50;;
48861;SDS011;34681;49.188;-0.374;2022-09-12T12:10:05;2.57;;;1.50;;
48861;SDS011;34681;49.188;-0.374;2022-09-12T12:12:32;2.87;;;1.23;;
48861;SDS011;34681;49.188;-0.374;2022-09-12T12:14:58;1.90;;;1.73;;
48861;SDS011;34681;49.188;-0.374;2022-09-12T12:17:24;1.70;;;1.60;;
48861;SDS011;34681;49.188;-0.374;2022-09-12T12:20:01;1.43;;;1.10;;
48861;SDS011;34681;49.188;-0.374;2022-09-12T12:22:28;5.33;;;1.33;;
48861;SDS011;34681;49.188;-0.374;2022-09-12T12:33:03;1.03;;;0.90;;
48861;SDS011;34681;49.188;-0.374;2022-09-12T12:38:02;1.60;;;0.90;;
48861;SDS011;34681;49.188;-0.374;2022-09-12T12:40:48;4.60;;;1.10;;
48861;SDS011;34681;49.188;-0.374;2022-09-12T12:43:27;1.33;;;1.10;;
48861;SDS011;34681;49.188;-0.374;2022-09-12T12:46:00;0.80;;;0.80;;
48861;SDS011;34681;49.188;-0.374;2022-09-12T12:48:28;0.80;;;0.80;;
48861;SDS011;34681;49.188;-0.374;2022-09-12T12:53:49;2.37;;;0.80;;
48861;SDS011;34681;49.188;-0.374;2022-09-12T12:56:24;0.70;;;0.70;;
48861;SDS011;34681;49.188;-0.374;2022-09-12T12:58:57;1.30;;;0.90;;
48861;SDS011;34681;49.188;-0.374;2022-09-12T13:01:25;3.40;;;1.00;;
48861;SDS011;34681;49.188;-0.374;2022-09-12T13:03:59;1.13;;;1.03;;
48861;SDS011;34681;49.188;-0.374;2022-09-12T13:06:28;0.80;;;0.80;;
48861;SDS011;34681;49.188;-0.374;2022-09-12T13:09:02;1.20;;;1.10;;
48861;SDS011;34681;49.188;-0.374;2022-09-12T13:11:31;0.90;;;0.80;;
48861;SDS011;34681;49.188;-0.374;2022-09-12T13:14:03;1.93;;;0.90;;
48861;SDS011;34681;49.188;-0.374;2022-09-12T13:19:10;1.00;;;0.90;;
48861;SDS011;34681;49.188;-0.374;2022-09-12T13:21:38;1.43;;;1.17;;
48861;SDS011;34681;49.188;-0.374;2022-09-12T13:24:29;1.20;;;1.00;;
48861;SDS011;34681;49.188;-0.374;2022-09-12T13:26:55;3.60;;;1.47;;
48861;SDS011;34681;49.188;-0.374;2022-09-12T13:29:22;1.90;;;0.93;;
48861;SDS011;34681;49.188;-0.374;2022-09-12T13:31:59;1.30;;;0.90;;
48861;SDS011;34681;49.188;-0.374;2022-09-12T13:34:50;0.93;;;0.90;;
48861;SDS011;34681;49.188;-0.374;2022-09-12T13:37:39;0.93;;;0.83;;
48861;SDS011;34681;49.188;-0.374;2022-09-12T13:40:29;2.40;;;0.80;;
48861;SDS011;34681;49.188;-0.374;2022-09-12T13:43:16;1.20;;;0.90;;
48861;SDS011;34681;49.188;-0.374;2022-09-12T13:45:50;1.07;;;0.97;;
48861;SDS011;34681;49.188;-0.374;2022-09-12T13:48:17;1.10;;;1.00;;
48861;SDS011;34681;49.188;-0.374;2022-09-12T13:53:24;1.37;;;1.27;;
48861;SDS011;34681;49.188;-0.374;2022-09-12T13:55:58;1.43;;;1.33;;
48861;SDS011;34681;49.188;-0.374;2022-09-12T13:58:26;2.07;;;1.00;;
48861;SDS011;34681;49.188;-0.374;2022-09-12T14:01:04;1.10;;;0.90;;
48861;SDS011;34681;49.188;-0.374;2022-09-12T14:03:46;1.10;;;1.10;;
48861;SDS011;34681;49.188;-0.374;2022-09-12T14:06:51;2.80;;;1.10;;
48861;SDS011;34681;49.188;-0.374;2022-09-12T14:09:24;0.80;;;0.80;;
48861;SDS011;34681;49.188;-0.374;2022-09-12T14:11:53;1.30;;;1.20;;
48861;SDS011;34681;49.188;-0.374;2022-09-12T14:14:28;1.13;;;0.90;;
48861;SDS011;34681;49.188;-0.374;2022-09-12T14:16:57;1.13;;;0.90;;
48861;SDS011;34681;49.188;-0.374;2022-09-12T14:19:23;2.20;;;0.80;;
48861;SDS011;34681;49.188;-0.374;2022-09-12T14:21:51;1.47;;;1.10;;
48861;SDS011;34681;49.188;-0.374;2022-09-12T14:24:20;2.90;;;1.17;;
48861;SDS011;34681;49.188;-0.374;2022-09-12T14:26:50;1.57;;;1.20;;
48861;SDS011;34681;49.188;-0.374;2022-09-12T14:29:18;1.23;;;1.13;;
48861;SDS011;34681;49.188;-0.374;2022-09-12T14:31:45;1.30;;;1.20;;
48861;SDS011;34681;49.188;-0.374;2022-09-12T14:34:17;1.37;;;0.93;;
48861;SDS011;34681;49.188;-0.374;2022-09-12T14:36:47;6.53;;;1.33;;
48861;SDS011;34681;49.188;-0.374;2022-09-12T14:39:22;1.07;;;1.00;;
48861;SDS011;34681;49.188;-0.374;2022-09-12T14:41:48;1.73;;;1.27;;
48861;SDS011;34681;49.188;-0.374;2022-09-12T14:44:18;1.87;;;1.10;;
48861;SDS011;34681;49.188;-0.374;2022-09-12T14:46:48;0.93;;;0.90;;
48861;SDS011;34681;49.188;-0.374;2022-09-12T14:49:22;0.80;;;0.80;;
48861;SDS011;34681;49.188;-0.374;2022-09-12T14:51:56;2.73;;;1.17;;
48861;SDS011;34681;49.188;-0.374;2022-09-12T14:56:53;0.97;;;0.90;;
48861;SDS011;34681;49.188;-0.374;2022-09-12T15:02:18;3.60;;;1.33;;
48861;SDS011;34681;49.188;-0.374;2022-09-12T15:04:45;5.17;;;1.60;;
48861;SDS011;34681;49.188;-0.374;2022-09-12T15:09:39;1.10;;;1.00;;
48861;SDS011;34681;49.188;-0.374;2022-09-12T15:12:05;1.80;;;1.10;;
48861;SDS011;34681;49.188;-0.374;2022-09-12T15:14:32;1.73;;;1.20;;
48861;SDS011;34681;49.188;-0.374;2022-09-12T15:16:57;1.30;;;1.07;;
48861;SDS011;34681;49.188;-0.374;2022-09-12T15:19:23;2.03;;;1.30;;
48861;SDS011;34681;49.188;-0.374;2022-09-12T15:21:48;1.10;;;1.00;;
48861;SDS011;34681;49.188;-0.374;2022-09-12T15:24:13;1.87;;;1.20;;
48861;SDS011;34681;49.188;-0.374;2022-09-12T15:26:39;3.00;;;1.20;;
48861;SDS011;34681;49.188;-0.374;2022-09-12T15:29:07;1.00;;;0.90;;
48861;SDS011;34681;49.188;-0.374;2022-09-12T15:31:33;1.10;;;1.00;;
48861;SDS011;34681;49.188;-0.374;2022-09-12T15:33:59;1.03;;;1.03;;
48861;SDS011;34681;49.188;-0.374;2022-09-12T15:36:25;0.90;;;0.90;;
48861;SDS011;34681;49.188;-0.374;2022-09-12T15:38:53;1.00;;;1.00;;
48861;SDS011;34681;49.188;-0.374;2022-09-12T15:41:20;1.30;;;1.20;;
48861;SDS011;34681;49.188;-0.374;2022-09-12T15:43:48;1.23;;;1.13;;
48861;SDS011;34681;49.188;-0.374;2022-09-12T15:46:15;2.37;;;0.97;;
48861;SDS011;34681;49.188;-0.374;2022-09-12T15:48:42;2.13;;;1.10;;
48861;SDS011;34681;49.188;-0.374;2022-09-12T15:51:13;1.03;;;0.93;;
48861;SDS011;34681;49.188;-0.374;2022-09-12T15:53:39;2.70;;;1.53;;
48861;SDS011;34681;49.188;-0.374;2022-09-12T15:56:05;1.17;;;1.07;;
48861;SDS011;34681;49.188;-0.374;2022-09-12T15:58:31;1.40;;;1.10;;
48861;SDS011;34681;49.188;-0.374;2022-09-12T16:00:56;1.00;;;1.00;;
48861;SDS011;34681;49.188;-0.374;2022-09-12T16:03:22;1.37;;;1.00;;
48861;SDS011;34681;49.188;-0.374;2022-09-12T16:05:55;0.90;;;0.90;;
48861;SDS011;34681;49.188;-0.374;2022-09-12T16:08:25;0.87;;;0.87;;
48861;SDS011;34681;49.188;-0.374;2022-09-12T16:10:53;1.13;;;1.10;;
48861;SDS011;34681;49.188;-0.374;2022-09-12T16:13:21;3.33;;;1.23;;
48861;SDS011;34681;49.188;-0.374;2022-09-12T16:15:47;1.23;;;1.00;;
48861;SDS011;34681;49.188;-0.374;2022-09-12T16:18:13;1.93;;;1.30;;
48861;SDS011;34681;49.188;-0.374;2022-09-12T16:20:38;1.30;;;1.20;;
48861;SDS011;34681;49.188;-0.374;2022-09-12T16:23:04;1.53;;;1.20;;
48861;SDS011;34681;49.188;-0.374;2022-09-12T16:25:30;1.70;;;1.10;;
48861;SDS011;34681;49.188;-0.374;2022-09-12T16:27:56;1.30;;;1.20;;
48861;SDS011;34681;49.188;-0.374;2022-09-12T16:30:21;1.10;;;1.00;;
48861;SDS011;34681;49.188;-0.374;2022-09-12T16:32:46;2.37;;;1.27;;
48861;SDS011;34681;49.188;-0.374;2022-09-12T16:35:12;1.57;;;1.47;;
48861;SDS011;34681;49.188;-0.374;2022-09-12T16:37:37;1.90;;;1.13;;
48861;SDS011;34681;49.188;-0.374;2022-09-12T16:40:03;3.17;;;1.47;;
48861;SDS011;34681;49.188;-0.374;2022-09-12T16:42:29;1.73;;;1.63;;
48861;SDS011;34681;49.188;-0.374;2022-09-12T16:44:55;1.40;;;1.30;;
48861;SDS011;34681;49.188;-0.374;2022-09-12T16:47:20;1.33;;;1.23;;
48861;SDS011;34681;49.188;-0.374;2022-09-12T16:49:45;1.40;;;1.30;;
48861;SDS011;34681;49.188;-0.374;2022-09-12T16:52:11;2.10;;;1.30;;
48861;SDS011;34681;49.188;-0.374;2022-09-12T16:54:38;1.60;;;1.40;;
48861;SDS011;34681;49.188;-0.374;2022-09-12T16:57:03;1.37;;;1.27;;
48861;SDS011;34681;49.188;-0.374;2022-09-12T16:59:30;1.53;;;1.10;;
48861;SDS011;34681;49.188;-0.374;2022-09-12T17:01:56;1.27;;;1.27;;
48861;SDS011;34681;49.188;-0.374;2022-09-12T17:04:21;1.10;;;1.00;;
48861;SDS011;34681;49.188;-0.374;2022-09-12T17:06:47;0.90;;;0.90;;
48861;SDS011;34681;49.188;-0.374;2022-09-12T17:09:12;1.90;;;1.00;;
48861;SDS011;34681;49.188;-0.374;2022-09-12T17:11:42;2.67;;;1.30;;